sensor_id;sensor_type;location;lat;lon;timestamp;P1;durP1;ratioP1;P2;durP2;ratioP2
26864;SDS011;40618;51.166;10.322;2023-02-28T00:00:28;2.80;;;1.55;;
26864;SDS011;40618;51.166;10.322;2023-02-28T00:02:54;2.05;;;1.30;;
26864;SDS011;40618;51.166;10.322;2023-02-28T00:05:21;2.35;;;1.20;;
26864;SDS011;40618;51.166;10.322;2023-02-28T00:07:49;3.60;;;1.27;;
26864;SDS011;40618;51.166;10.322;2023-02-28T00:10:19;4.72;;;1.45;;
26864;SDS011;40618;51.166;10.322;2023-02-28T00:12:51;1.30;;;1.00;;
26864;SDS011;40618;51.166;10.322;2023-02-28T00:15:19;2.38;;;1.30;;
26864;SDS011;40618;51.166;10.322;2023-02-28T00:17:45;3.30;;;1.67;;
26864;SDS011;40618;51.166;10.322;2023-02-28T00:20:11;2.75;;;1.33;;
26864;SDS011;40618;51.166;10.322;2023-02-28T00:22:39;4.38;;;1.17;;
26864;SDS011;40618;51.166;10.322;2023-02-28T00:25:11;2.03;;;1.20;;
26864;SDS011;40618;51.166;10.322;2023-02-28T00:27:39;1.52;;;1.35;;
26864;SDS011;40618;51.166;10.322;2023-02-28T00:30:06;4.22;;;1.30;;
26864;SDS011;40618;51.166;10.322;2023-02-28T00:32:35;2.47;;;1.30;;
26864;SDS011;40618;51.166;10.322;2023-02-28T00:35:01;3.10;;;1.58;;
26864;SDS011;40618;51.166;10.322;2023-02-28T00:37:28;2.83;;;1.33;;
26864;SDS011;40618;51.166;10.322;2023-02-28T00:39:54;1.92;;;0.90;;
26864;SDS011;40618;51.166;10.322;2023-02-28T00:42:19;2.10;;;1.33;;
26864;SDS011;40618;51.166;10.322;2023-02-28T00:44:45;2.08;;;1.10;;
26864;SDS011;40618;51.166;10.322;2023-02-28T00:47:10;2.17;;;1.17;;
26864;SDS011;40618;51.166;10.322;2023-02-28T00:49:36;4.32;;;1.48;;
26864;SDS011;40618;51.166;10.322;2023-02-28T00:52:02;2.22;;;1.20;;
26864;SDS011;40618;51.166;10.322;2023-02-28T00:54:28;2.13;;;1.40;;
26864;SDS011;40618;51.166;10.322;2023-02-28T00:56:53;3.20;;;1.58;;
26864;SDS011;40618;51.166;10.322;2023-02-28T00:59:19;3.78;;;1.08;;
26864;SDS011;40618;51.166;10.322;2023-02-28T01:01:45;2.38;;;1.13;;
26864;SDS011;40618;51.166;10.322;2023-02-28T01:04:11;3.38;;;1.48;;
26864;SDS011;40618;51.166;10.322;2023-02-28T01:06:38;2.67;;;1.50;;
26864;SDS011;40618;51.166;10.322;2023-02-28T01:09:05;2.28;;;1.27;;
26864;SDS011;40618;51.166;10.322;2023-02-28T01:11:32;3.85;;;1.40;;
26864;SDS011;40618;51.166;10.322;2023-02-28T01:13:59;1.60;;;1.10;;
26864;SDS011;40618;51.166;10.322;2023-02-28T01:16:25;4.38;;;1.50;;
26864;SDS011;40618;51.166;10.322;2023-02-28T01:18:51;4.68;;;1.48;;
26864;SDS011;40618;51.166;10.322;2023-02-28T01:21:17;4.15;;;1.67;;
26864;SDS011;40618;51.166;10.322;2023-02-28T01:23:45;2.40;;;1.45;;
26864;SDS011;40618;51.166;10.322;2023-02-28T01:26:13;4.63;;;1.63;;
26864;SDS011;40618;51.166;10.322;2023-02-28T01:28:49;2.78;;;1.58;;
26864;SDS011;40618;51.166;10.322;2023-02-28T01:31:17;2.80;;;1.40;;
26864;SDS011;40618;51.166;10.322;2023-02-28T01:33:44;3.47;;;1.20;;
26864;SDS011;40618;51.166;10.322;2023-02-28T01:36:12;1.90;;;1.38;;
26864;SDS011;40618;51.166;10.322;2023-02-28T01:38:42;2.50;;;1.25;;
26864;SDS011;40618;51.166;10.322;2023-02-28T01:41:12;3.10;;;1.48;;
26864;SDS011;40618;51.166;10.322;2023-02-28T01:46:09;4.38;;;1.73;;
26864;SDS011;40618;51.166;10.322;2023-02-28T01:48:42;2.83;;;1.48;;
26864;SDS011;40618;51.166;10.322;2023-02-28T01:51:15;2.80;;;1.52;;
26864;SDS011;40618;51.166;10.322;2023-02-28T01:53:53;2.20;;;1.25;;
26864;SDS011;40618;51.166;10.322;2023-02-28T01:56:26;2.30;;;1.10;;
26864;SDS011;40618;51.166;10.322;2023-02-28T01:58:57;2.83;;;1.27;;
26864;SDS011;40618;51.166;10.322;2023-02-28T02:01:24;2.25;;;1.30;;
26864;SDS011;40618;51.166;10.322;2023-02-28T02:03:53;2.30;;;1.20;;
26864;SDS011;40618;51.166;10.322;2023-02-28T02:06:45;1.90;;;1.27;;
26864;SDS011;40618;51.166;10.322;2023-02-28T02:09:12;2.95;;;1.35;;
26864;SDS011;40618;51.166;10.322;2023-02-28T02:11:39;2.45;;;1.40;;
26864;SDS011;40618;51.166;10.322;2023-02-28T02:16:51;1.75;;;1.45;;
26864;SDS011;40618;51.166;10.322;2023-02-28T02:28:59;3.05;;;1.10;;
26864;SDS011;40618;51.166;10.322;2023-02-28T02:32:09;2.42;;;1.30;;
26864;SDS011;40618;51.166;10.322;2023-02-28T02:41:14;5.72;;;2.47;;
26864;SDS011;40618;51.166;10.322;2023-02-28T02:44:02;3.42;;;1.63;;
26864;SDS011;40618;51.166;10.322;2023-02-28T02:46:45;2.92;;;1.30;;
26864;SDS011;40618;51.166;10.322;2023-02-28T02:49:18;2.80;;;1.20;;
26864;SDS011;40618;51.166;10.322;2023-02-28T02:51:49;2.40;;;1.48;;
26864;SDS011;40618;51.166;10.322;2023-02-28T02:54:19;3.38;;;1.40;;
26864;SDS011;40618;51.166;10.322;2023-02-28T02:56:52;5.20;;;1.52;;
26864;SDS011;40618;51.166;10.322;2023-02-28T02:59:20;2.88;;;1.15;;
26864;SDS011;40618;51.166;10.322;2023-02-28T03:01:49;1.98;;;1.27;;
26864;SDS011;40618;51.166;10.322;2023-02-28T03:04:25;3.03;;;1.10;;
26864;SDS011;40618;51.166;10.322;2023-02-28T03:06:57;1.65;;;1.15;;
26864;SDS011;40618;51.166;10.322;2023-02-28T03:09:23;1.95;;;1.20;;
26864;SDS011;40618;51.166;10.322;2023-02-28T03:11:51;3.65;;;1.30;;
26864;SDS011;40618;51.166;10.322;2023-02-28T03:20:24;5.57;;;3.10;;
26864;SDS011;40618;51.166;10.322;2023-02-28T03:23:23;4.90;;;3.10;;
26864;SDS011;40618;51.166;10.322;2023-02-28T03:26:07;14.32;;;6.88;;
26864;SDS011;40618;51.166;10.322;2023-02-28T03:36:45;2.28;;;1.35;;
26864;SDS011;40618;51.166;10.322;2023-02-28T03:39:19;2.78;;;1.45;;
26864;SDS011;40618;51.166;10.322;2023-02-28T03:41:52;2.90;;;1.23;;
26864;SDS011;40618;51.166;10.322;2023-02-28T03:44:46;2.08;;;1.15;;
26864;SDS011;40618;51.166;10.322;2023-02-28T03:47:21;6.90;;;1.40;;
26864;SDS011;40618;51.166;10.322;2023-02-28T03:53:14;2.35;;;1.55;;
26864;SDS011;40618;51.166;10.322;2023-02-28T03:59:00;4.57;;;1.10;;
26864;SDS011;40618;51.166;10.322;2023-02-28T04:01:47;2.00;;;1.20;;
26864;SDS011;40618;51.166;10.322;2023-02-28T04:04:15;1.25;;;0.93;;
26864;SDS011;40618;51.166;10.322;2023-02-28T04:06:42;4.97;;;1.10;;
26864;SDS011;40618;51.166;10.322;2023-02-28T04:09:09;2.63;;;1.20;;
26864;SDS011;40618;51.166;10.322;2023-02-28T04:11:42;2.30;;;1.20;;
26864;SDS011;40618;51.166;10.322;2023-02-28T04:14:13;2.60;;;1.20;;
26864;SDS011;40618;51.166;10.322;2023-02-28T04:16:40;2.05;;;1.20;;
26864;SDS011;40618;51.166;10.322;2023-02-28T04:19:07;2.58;;;1.40;;
26864;SDS011;40618;51.166;10.322;2023-02-28T04:21:36;2.22;;;1.27;;
26864;SDS011;40618;51.166;10.322;2023-02-28T04:24:08;2.72;;;1.50;;
26864;SDS011;40618;51.166;10.322;2023-02-28T04:26:42;2.35;;;1.45;;
26864;SDS011;40618;51.166;10.322;2023-02-28T04:29:11;2.33;;;1.42;;
26864;SDS011;40618;51.166;10.322;2023-02-28T04:31:42;2.15;;;1.20;;
26864;SDS011;40618;51.166;10.322;2023-02-28T04:34:08;1.58;;;1.17;;
26864;SDS011;40618;51.166;10.322;2023-02-28T04:36:34;2.67;;;1.08;;
26864;SDS011;40618;51.166;10.322;2023-02-28T04:38:59;2.15;;;1.33;;
26864;SDS011;40618;51.166;10.322;2023-02-28T04:41:25;3.00;;;1.33;;
26864;SDS011;40618;51.166;10.322;2023-02-28T04:43:51;3.33;;;1.15;;
26864;SDS011;40618;51.166;10.322;2023-02-28T04:46:17;2.92;;;1.38;;
26864;SDS011;40618;51.166;10.322;2023-02-28T04:48:44;3.53;;;1.20;;
26864;SDS011;40618;51.166;10.322;2023-02-28T04:51:10;2.80;;;1.38;;
26864;SDS011;40618;51.166;10.322;2023-02-28T04:53:39;3.13;;;1.50;;
26864;SDS011;40618;51.166;10.322;2023-02-28T04:56:06;2.88;;;1.52;;
26864;SDS011;40618;51.166;10.322;2023-02-28T04:58:35;4.75;;;1.40;;
26864;SDS011;40618;51.166;10.322;2023-02-28T05:01:02;1.77;;;1.35;;
26864;SDS011;40618;51.166;10.322;2023-02-28T05:03:40;3.78;;;1.50;;
26864;SDS011;40618;51.166;10.322;2023-02-28T05:06:07;2.25;;;1.30;;
26864;SDS011;40618;51.166;10.322;2023-02-28T05:08:35;1.92;;;1.38;;
26864;SDS011;40618;51.166;10.322;2023-02-28T05:11:00;6.35;;;2.97;;
26864;SDS011;40618;51.166;10.322;2023-02-28T05:13:27;4.28;;;2.05;;
26864;SDS011;40618;51.166;10.322;2023-02-28T05:15:53;3.45;;;1.63;;
26864;SDS011;40618;51.166;10.322;2023-02-28T05:18:20;3.83;;;1.70;;
26864;SDS011;40618;51.166;10.322;2023-02-28T05:20:45;3.58;;;1.48;;
26864;SDS011;40618;51.166;10.322;2023-02-28T05:23:12;3.38;;;1.55;;
26864;SDS011;40618;51.166;10.322;2023-02-28T05:25:39;3.85;;;2.10;;
26864;SDS011;40618;51.166;10.322;2023-02-28T05:28:06;5.35;;;2.17;;
26864;SDS011;40618;51.166;10.322;2023-02-28T05:30:32;3.83;;;1.70;;
26864;SDS011;40618;51.166;10.322;2023-02-28T05:32:58;8.45;;;3.28;;
26864;SDS011;40618;51.166;10.322;2023-02-28T05:35:25;6.50;;;2.80;;
26864;SDS011;40618;51.166;10.322;2023-02-28T05:37:51;3.67;;;2.13;;
26864;SDS011;40618;51.166;10.322;2023-02-28T05:40:17;3.75;;;1.77;;
26864;SDS011;40618;51.166;10.322;2023-02-28T05:42:45;3.47;;;1.58;;
26864;SDS011;40618;51.166;10.322;2023-02-28T05:45:11;3.58;;;1.88;;
26864;SDS011;40618;51.166;10.322;2023-02-28T05:47:37;3.45;;;2.00;;
26864;SDS011;40618;51.166;10.322;2023-02-28T05:50:04;4.32;;;1.92;;
26864;SDS011;40618;51.166;10.322;2023-02-28T05:52:30;5.65;;;1.95;;
26864;SDS011;40618;51.166;10.322;2023-02-28T05:54:56;2.70;;;1.30;;
26864;SDS011;40618;51.166;10.322;2023-02-28T05:57:22;2.20;;;1.35;;
26864;SDS011;40618;51.166;10.322;2023-02-28T05:59:49;2.22;;;1.50;;
26864;SDS011;40618;51.166;10.322;2023-02-28T06:02:15;3.70;;;1.60;;
26864;SDS011;40618;51.166;10.322;2023-02-28T06:04:43;4.57;;;2.08;;
26864;SDS011;40618;51.166;10.322;2023-02-28T06:07:09;3.65;;;2.20;;
26864;SDS011;40618;51.166;10.322;2023-02-28T06:09:35;3.47;;;1.85;;
26864;SDS011;40618;51.166;10.322;2023-02-28T06:12:02;3.33;;;1.65;;
26864;SDS011;40618;51.166;10.322;2023-02-28T06:14:32;5.15;;;2.58;;
26864;SDS011;40618;51.166;10.322;2023-02-28T06:16:59;2.97;;;2.20;;
26864;SDS011;40618;51.166;10.322;2023-02-28T06:19:26;2.80;;;1.58;;
26864;SDS011;40618;51.166;10.322;2023-02-28T06:21:53;6.10;;;1.95;;
26864;SDS011;40618;51.166;10.322;2023-02-28T06:24:20;4.70;;;2.05;;
26864;SDS011;40618;51.166;10.322;2023-02-28T06:26:47;7.63;;;2.45;;
26864;SDS011;40618;51.166;10.322;2023-02-28T06:29:14;3.65;;;2.03;;
26864;SDS011;40618;51.166;10.322;2023-02-28T06:31:43;2.00;;;1.43;;
26864;SDS011;40618;51.166;10.322;2023-02-28T06:34:10;7.20;;;2.10;;
26864;SDS011;40618;51.166;10.322;2023-02-28T06:36:40;4.45;;;2.10;;
26864;SDS011;40618;51.166;10.322;2023-02-28T06:39:07;6.38;;;2.25;;
26864;SDS011;40618;51.166;10.322;2023-02-28T06:41:34;5.97;;;2.67;;
26864;SDS011;40618;51.166;10.322;2023-02-28T06:44:05;5.18;;;2.60;;
26864;SDS011;40618;51.166;10.322;2023-02-28T06:46:39;3.90;;;2.78;;
26864;SDS011;40618;51.166;10.322;2023-02-28T06:49:06;3.28;;;2.30;;
26864;SDS011;40618;51.166;10.322;2023-02-28T06:51:37;5.30;;;2.00;;
26864;SDS011;40618;51.166;10.322;2023-02-28T06:54:06;5.63;;;2.15;;
26864;SDS011;40618;51.166;10.322;2023-02-28T06:56:36;7.47;;;2.92;;
26864;SDS011;40618;51.166;10.322;2023-02-28T06:59:02;4.13;;;2.20;;
26864;SDS011;40618;51.166;10.322;2023-02-28T07:01:28;4.80;;;2.45;;
26864;SDS011;40618;51.166;10.322;2023-02-28T07:03:56;2.75;;;2.08;;
26864;SDS011;40618;51.166;10.322;2023-02-28T07:06:22;4.80;;;2.90;;
26864;SDS011;40618;51.166;10.322;2023-02-28T07:08:49;6.85;;;2.92;;
26864;SDS011;40618;51.166;10.322;2023-02-28T07:11:17;4.78;;;2.92;;
26864;SDS011;40618;51.166;10.322;2023-02-28T07:13:44;5.45;;;2.67;;
26864;SDS011;40618;51.166;10.322;2023-02-28T07:16:11;4.95;;;2.97;;
26864;SDS011;40618;51.166;10.322;2023-02-28T07:18:37;4.95;;;2.80;;
26864;SDS011;40618;51.166;10.322;2023-02-28T07:21:04;5.95;;;2.70;;
26864;SDS011;40618;51.166;10.322;2023-02-28T07:23:33;4.07;;;2.33;;
26864;SDS011;40618;51.166;10.322;2023-02-28T07:25:59;4.20;;;2.47;;
26864;SDS011;40618;51.166;10.322;2023-02-28T07:28:25;8.25;;;2.90;;
26864;SDS011;40618;51.166;10.322;2023-02-28T07:30:51;6.78;;;3.05;;
26864;SDS011;40618;51.166;10.322;2023-02-28T07:33:17;5.60;;;3.20;;
26864;SDS011;40618;51.166;10.322;2023-02-28T07:35:42;5.13;;;2.63;;
26864;SDS011;40618;51.166;10.322;2023-02-28T07:38:09;4.95;;;3.15;;
26864;SDS011;40618;51.166;10.322;2023-02-28T07:40:35;6.03;;;3.22;;
26864;SDS011;40618;51.166;10.322;2023-02-28T07:43:01;4.55;;;3.38;;
26864;SDS011;40618;51.166;10.322;2023-02-28T07:45:28;4.75;;;2.80;;
26864;SDS011;40618;51.166;10.322;2023-02-28T07:47:56;6.05;;;3.45;;
26864;SDS011;40618;51.166;10.322;2023-02-28T07:50:22;6.28;;;3.05;;
26864;SDS011;40618;51.166;10.322;2023-02-28T07:52:48;4.68;;;3.17;;
26864;SDS011;40618;51.166;10.322;2023-02-28T07:55:14;7.50;;;5.28;;
26864;SDS011;40618;51.166;10.322;2023-02-28T07:57:41;5.68;;;3.70;;
26864;SDS011;40618;51.166;10.322;2023-02-28T08:00:08;5.35;;;3.28;;
26864;SDS011;40618;51.166;10.322;2023-02-28T08:02:36;5.07;;;3.42;;
26864;SDS011;40618;51.166;10.322;2023-02-28T08:05:02;4.60;;;3.47;;
26864;SDS011;40618;51.166;10.322;2023-02-28T08:07:27;4.40;;;3.13;;
26864;SDS011;40618;51.166;10.322;2023-02-28T08:09:53;4.50;;;3.20;;
26864;SDS011;40618;51.166;10.322;2023-02-28T08:12:19;5.72;;;3.28;;
26864;SDS011;40618;51.166;10.322;2023-02-28T08:14:45;6.85;;;3.88;;
26864;SDS011;40618;51.166;10.322;2023-02-28T08:17:10;4.57;;;3.03;;
26864;SDS011;40618;51.166;10.322;2023-02-28T08:19:37;4.22;;;3.08;;
26864;SDS011;40618;51.166;10.322;2023-02-28T08:22:03;8.25;;;3.45;;
26864;SDS011;40618;51.166;10.322;2023-02-28T08:24:28;7.00;;;3.47;;
26864;SDS011;40618;51.166;10.322;2023-02-28T08:26:54;5.20;;;3.35;;
26864;SDS011;40618;51.166;10.322;2023-02-28T08:29:20;4.72;;;3.40;;
26864;SDS011;40618;51.166;10.322;2023-02-28T08:31:46;4.57;;;3.15;;
26864;SDS011;40618;51.166;10.322;2023-02-28T08:34:13;5.25;;;3.15;;
26864;SDS011;40618;51.166;10.322;2023-02-28T08:36:40;4.80;;;3.00;;
26864;SDS011;40618;51.166;10.322;2023-02-28T08:39:07;5.85;;;3.60;;
26864;SDS011;40618;51.166;10.322;2023-02-28T08:41:34;5.70;;;3.50;;
26864;SDS011;40618;51.166;10.322;2023-02-28T08:44:00;5.30;;;2.88;;
26864;SDS011;40618;51.166;10.322;2023-02-28T08:46:26;5.35;;;3.42;;
26864;SDS011;40618;51.166;10.322;2023-02-28T08:48:53;4.68;;;3.28;;
26864;SDS011;40618;51.166;10.322;2023-02-28T08:51:26;5.95;;;3.15;;
26864;SDS011;40618;51.166;10.322;2023-02-28T08:53:53;5.95;;;3.28;;
26864;SDS011;40618;51.166;10.322;2023-02-28T08:56:24;4.47;;;2.90;;
26864;SDS011;40618;51.166;10.322;2023-02-28T08:58:51;8.18;;;3.17;;
26864;SDS011;40618;51.166;10.322;2023-02-28T09:01:22;5.03;;;3.05;;
26864;SDS011;40618;51.166;10.322;2023-02-28T09:06:18;6.13;;;3.10;;
26864;SDS011;40618;51.166;10.322;2023-02-28T09:08:47;5.93;;;3.17;;
26864;SDS011;40618;51.166;10.322;2023-02-28T09:11:13;4.53;;;3.03;;
26864;SDS011;40618;51.166;10.322;2023-02-28T09:13:39;5.75;;;2.38;;
26864;SDS011;40618;51.166;10.322;2023-02-28T09:16:06;4.65;;;2.47;;
26864;SDS011;40618;51.166;10.322;2023-02-28T09:18:35;5.65;;;3.20;;
26864;SDS011;40618;51.166;10.322;2023-02-28T09:21:05;3.13;;;2.10;;
26864;SDS011;40618;51.166;10.322;2023-02-28T09:23:34;5.00;;;2.30;;
26864;SDS011;40618;51.166;10.322;2023-02-28T09:26:03;3.95;;;2.53;;
26864;SDS011;40618;51.166;10.322;2023-02-28T09:28:29;5.00;;;2.85;;
26864;SDS011;40618;51.166;10.322;2023-02-28T09:30:55;6.15;;;2.83;;
26864;SDS011;40618;51.166;10.322;2023-02-28T09:33:23;4.75;;;2.55;;
26864;SDS011;40618;51.166;10.322;2023-02-28T09:35:51;8.23;;;2.80;;
26864;SDS011;40618;51.166;10.322;2023-02-28T09:38:23;5.40;;;2.75;;
26864;SDS011;40618;51.166;10.322;2023-02-28T09:40:52;7.05;;;3.10;;
26864;SDS011;40618;51.166;10.322;2023-02-28T09:43:24;4.03;;;2.45;;
26864;SDS011;40618;51.166;10.322;2023-02-28T09:49:05;4.20;;;2.70;;
26864;SDS011;40618;51.166;10.322;2023-02-28T09:54:28;3.40;;;2.63;;
26864;SDS011;40618;51.166;10.322;2023-02-28T09:57:08;4.57;;;2.88;;
26864;SDS011;40618;51.166;10.322;2023-02-28T10:00:02;5.07;;;2.63;;
26864;SDS011;40618;51.166;10.322;2023-02-28T10:03:00;4.03;;;2.78;;
26864;SDS011;40618;51.166;10.322;2023-02-28T10:05:56;16.08;;;6.32;;
26864;SDS011;40618;51.166;10.322;2023-02-28T10:08:29;17.13;;;7.63;;
26864;SDS011;40618;51.166;10.322;2023-02-28T10:11:07;7.85;;;3.78;;
26864;SDS011;40618;51.166;10.322;2023-02-28T10:13:44;7.57;;;3.50;;
26864;SDS011;40618;51.166;10.322;2023-02-28T10:17:19;4.80;;;3.05;;
26864;SDS011;40618;51.166;10.322;2023-02-28T10:22:59;4.32;;;2.75;;
26864;SDS011;40618;51.166;10.322;2023-02-28T10:25:47;4.80;;;2.33;;
26864;SDS011;40618;51.166;10.322;2023-02-28T10:28:20;4.30;;;2.50;;
26864;SDS011;40618;51.166;10.322;2023-02-28T10:30:50;6.82;;;3.38;;
26864;SDS011;40618;51.166;10.322;2023-02-28T10:33:28;5.35;;;3.05;;
26864;SDS011;40618;51.166;10.322;2023-02-28T10:35:59;4.82;;;2.58;;
26864;SDS011;40618;51.166;10.322;2023-02-28T10:38:34;5.07;;;3.20;;
26864;SDS011;40618;51.166;10.322;2023-02-28T10:41:07;4.70;;;2.65;;
26864;SDS011;40618;51.166;10.322;2023-02-28T10:43:38;4.78;;;3.13;;
26864;SDS011;40618;51.166;10.322;2023-02-28T10:48:50;4.70;;;2.60;;
26864;SDS011;40618;51.166;10.322;2023-02-28T10:51:34;7.07;;;2.80;;
26864;SDS011;40618;51.166;10.322;2023-02-28T10:54:05;3.47;;;2.47;;
26864;SDS011;40618;51.166;10.322;2023-02-28T10:56:41;6.25;;;2.53;;
26864;SDS011;40618;51.166;10.322;2023-02-28T11:01:56;6.68;;;2.80;;
26864;SDS011;40618;51.166;10.322;2023-02-28T11:06:47;5.93;;;3.40;;
26864;SDS011;40618;51.166;10.322;2023-02-28T11:09:25;6.22;;;2.70;;
26864;SDS011;40618;51.166;10.322;2023-02-28T11:12:02;5.43;;;3.30;;
26864;SDS011;40618;51.166;10.322;2023-02-28T11:14:40;5.65;;;3.20;;
26864;SDS011;40618;51.166;10.322;2023-02-28T11:17:22;4.22;;;3.08;;
26864;SDS011;40618;51.166;10.322;2023-02-28T11:19:52;6.10;;;3.17;;
26864;SDS011;40618;51.166;10.322;2023-02-28T11:22:25;6.10;;;3.15;;
26864;SDS011;40618;51.166;10.322;2023-02-28T11:24:55;6.05;;;3.15;;
26864;SDS011;40618;51.166;10.322;2023-02-28T11:29:54;6.15;;;3.45;;
26864;SDS011;40618;51.166;10.322;2023-02-28T11:32:24;4.88;;;2.85;;
26864;SDS011;40618;51.166;10.322;2023-02-28T11:37:59;7.63;;;3.22;;
26864;SDS011;40618;51.166;10.322;2023-02-28T11:41:29;4.38;;;3.40;;
26864;SDS011;40618;51.166;10.322;2023-02-28T11:47:11;6.38;;;3.40;;
26864;SDS011;40618;51.166;10.322;2023-02-28T11:50:07;5.30;;;3.38;;
26864;SDS011;40618;51.166;10.322;2023-02-28T11:53:00;5.00;;;3.03;;
26864;SDS011;40618;51.166;10.322;2023-02-28T11:55:53;6.13;;;2.95;;
26864;SDS011;40618;51.166;10.322;2023-02-28T12:01:15;4.22;;;3.08;;
26864;SDS011;40618;51.166;10.322;2023-02-28T12:06:57;4.47;;;2.75;;
26864;SDS011;40618;51.166;10.322;2023-02-28T12:10:05;6.05;;;3.08;;
26864;SDS011;40618;51.166;10.322;2023-02-28T12:13:08;5.18;;;3.33;;
26864;SDS011;40618;51.166;10.322;2023-02-28T12:27:28;6.15;;;3.30;;
26864;SDS011;40618;51.166;10.322;2023-02-28T12:30:03;5.82;;;3.40;;
26864;SDS011;40618;51.166;10.322;2023-02-28T12:32:35;5.55;;;3.08;;
26864;SDS011;40618;51.166;10.322;2023-02-28T12:37:50;8.88;;;3.90;;
26864;SDS011;40618;51.166;10.322;2023-02-28T12:40:27;6.22;;;3.50;;
26864;SDS011;40618;51.166;10.322;2023-02-28T12:43:08;6.50;;;4.35;;
26864;SDS011;40618;51.166;10.322;2023-02-28T12:45:55;9.32;;;3.72;;
26864;SDS011;40618;51.166;10.322;2023-02-28T12:48:29;9.10;;;3.53;;
26864;SDS011;40618;51.166;10.322;2023-02-28T12:51:05;4.25;;;3.05;;
26864;SDS011;40618;51.166;10.322;2023-02-28T12:56:45;4.50;;;2.70;;
26864;SDS011;40618;51.166;10.322;2023-02-28T12:59:52;8.18;;;3.88;;
26864;SDS011;40618;51.166;10.322;2023-02-28T13:11:01;7.50;;;3.65;;
26864;SDS011;40618;51.166;10.322;2023-02-28T13:13:28;6.55;;;4.25;;
26864;SDS011;40618;51.166;10.322;2023-02-28T13:18:31;6.40;;;4.20;;
26864;SDS011;40618;51.166;10.322;2023-02-28T13:21:02;11.32;;;4.80;;
26864;SDS011;40618;51.166;10.322;2023-02-28T13:23:39;25.00;;;10.40;;
26864;SDS011;40618;51.166;10.322;2023-02-28T13:34:28;8.75;;;5.75;;
26864;SDS011;40618;51.166;10.322;2023-02-28T13:39:56;6.95;;;4.43;;
26864;SDS011;40618;51.166;10.322;2023-02-28T13:42:53;7.70;;;5.05;;
26864;SDS011;40618;51.166;10.322;2023-02-28T13:45:23;13.13;;;7.03;;
26864;SDS011;40618;51.166;10.322;2023-02-28T13:48:01;7.43;;;4.90;;
26864;SDS011;40618;51.166;10.322;2023-02-28T13:50:42;9.02;;;4.90;;
26864;SDS011;40618;51.166;10.322;2023-02-28T13:58:54;7.50;;;4.75;;
26864;SDS011;40618;51.166;10.322;2023-02-28T14:07:26;12.30;;;4.35;;
26864;SDS011;40618;51.166;10.322;2023-02-28T14:10:21;6.68;;;4.38;;
26864;SDS011;40618;51.166;10.322;2023-02-28T14:13:14;8.20;;;3.92;;
26864;SDS011;40618;51.166;10.322;2023-02-28T14:16:14;8.82;;;4.22;;
26864;SDS011;40618;51.166;10.322;2023-02-28T14:19:29;7.35;;;4.63;;
26864;SDS011;40618;51.166;10.322;2023-02-28T14:21:38;10.68;;;5.43;;
26864;SDS011;40618;51.166;10.322;2023-02-28T14:24:32;6.00;;;3.67;;
26864;SDS011;40618;51.166;10.322;2023-02-28T14:30:36;7.90;;;4.20;;
26864;SDS011;40618;51.166;10.322;2023-02-28T14:33:45;7.95;;;4.05;;
26864;SDS011;40618;51.166;10.322;2023-02-28T14:36:32;9.15;;;4.63;;
26864;SDS011;40618;51.166;10.322;2023-02-28T14:39:11;11.63;;;5.43;;
26864;SDS011;40618;51.166;10.322;2023-02-28T14:41:41;8.68;;;5.10;;
26864;SDS011;40618;51.166;10.322;2023-02-28T14:44:19;8.93;;;5.10;;
26864;SDS011;40618;51.166;10.322;2023-02-28T14:46:59;15.00;;;6.00;;
26864;SDS011;40618;51.166;10.322;2023-02-28T14:49:35;11.98;;;7.22;;
26864;SDS011;40618;51.166;10.322;2023-02-28T14:54:51;8.20;;;5.00;;
26864;SDS011;40618;51.166;10.322;2023-02-28T14:57:29;7.22;;;4.18;;
26864;SDS011;40618;51.166;10.322;2023-02-28T15:00:03;13.60;;;6.28;;
26864;SDS011;40618;51.166;10.322;2023-02-28T15:02:38;14.15;;;7.20;;
26864;SDS011;40618;51.166;10.322;2023-02-28T15:07:43;9.23;;;5.47;;
26864;SDS011;40618;51.166;10.322;2023-02-28T15:10:11;23.80;;;11.00;;
26864;SDS011;40618;51.166;10.322;2023-02-28T15:12:41;31.10;;;16.42;;
26864;SDS011;40618;51.166;10.322;2023-02-28T15:15:19;30.38;;;13.73;;
26864;SDS011;40618;51.166;10.322;2023-02-28T15:17:47;24.75;;;11.20;;
26864;SDS011;40618;51.166;10.322;2023-02-28T15:20:19;28.70;;;11.40;;
26864;SDS011;40618;51.166;10.322;2023-02-28T15:22:47;34.35;;;14.15;;
26864;SDS011;40618;51.166;10.322;2023-02-28T15:25:18;17.17;;;8.73;;
26864;SDS011;40618;51.166;10.322;2023-02-28T15:27:48;8.50;;;4.60;;
26864;SDS011;40618;51.166;10.322;2023-02-28T15:30:20;16.00;;;7.05;;
26864;SDS011;40618;51.166;10.322;2023-02-28T15:33:06;17.33;;;7.80;;
26864;SDS011;40618;51.166;10.322;2023-02-28T15:35:46;27.00;;;10.90;;
26864;SDS011;40618;51.166;10.322;2023-02-28T15:40:53;20.55;;;9.32;;
26864;SDS011;40618;51.166;10.322;2023-02-28T15:43:29;16.15;;;7.78;;
26864;SDS011;40618;51.166;10.322;2023-02-28T15:46:06;14.35;;;8.43;;
26864;SDS011;40618;51.166;10.322;2023-02-28T15:48:36;16.80;;;8.98;;
26864;SDS011;40618;51.166;10.322;2023-02-28T15:51:23;19.88;;;7.93;;
26864;SDS011;40618;51.166;10.322;2023-02-28T15:53:58;14.30;;;7.38;;
26864;SDS011;40618;51.166;10.322;2023-02-28T15:56:47;16.13;;;6.40;;
26864;SDS011;40618;51.166;10.322;2023-02-28T15:59:23;9.82;;;6.18;;
26864;SDS011;40618;51.166;10.322;2023-02-28T16:04:53;6.72;;;4.82;;
26864;SDS011;40618;51.166;10.322;2023-02-28T16:07:27;11.98;;;5.47;;
26864;SDS011;40618;51.166;10.322;2023-02-28T16:09:53;9.57;;;4.72;;
26864;SDS011;40618;51.166;10.322;2023-02-28T16:12:19;5.85;;;3.97;;
26864;SDS011;40618;51.166;10.322;2023-02-28T16:14:51;7.25;;;5.13;;
26864;SDS011;40618;51.166;10.322;2023-02-28T16:17:26;10.60;;;5.50;;
26864;SDS011;40618;51.166;10.322;2023-02-28T16:19:57;9.07;;;5.65;;
26864;SDS011;40618;51.166;10.322;2023-02-28T16:22:24;10.90;;;5.38;;
26864;SDS011;40618;51.166;10.322;2023-02-28T16:24:50;9.10;;;5.60;;
26864;SDS011;40618;51.166;10.322;2023-02-28T16:27:17;8.27;;;5.60;;
26864;SDS011;40618;51.166;10.322;2023-02-28T16:29:56;15.10;;;9.05;;
26864;SDS011;40618;51.166;10.322;2023-02-28T16:32:21;11.77;;;6.60;;
26864;SDS011;40618;51.166;10.322;2023-02-28T16:34:47;14.60;;;8.15;;
26864;SDS011;40618;51.166;10.322;2023-02-28T16:37:14;61.80;;;28.67;;
26864;SDS011;40618;51.166;10.322;2023-02-28T16:39:42;26.58;;;12.95;;
26864;SDS011;40618;51.166;10.322;2023-02-28T16:42:16;27.55;;;13.85;;
26864;SDS011;40618;51.166;10.322;2023-02-28T16:44:50;14.75;;;8.52;;
26864;SDS011;40618;51.166;10.322;2023-02-28T16:47:17;15.90;;;9.23;;
26864;SDS011;40618;51.166;10.322;2023-02-28T16:49:43;14.45;;;8.60;;
26864;SDS011;40618;51.166;10.322;2023-02-28T16:52:09;10.13;;;6.72;;
26864;SDS011;40618;51.166;10.322;2023-02-28T16:54:37;12.15;;;8.43;;
26864;SDS011;40618;51.166;10.322;2023-02-28T16:57:04;7.88;;;5.53;;
26864;SDS011;40618;51.166;10.322;2023-02-28T16:59:31;15.77;;;8.38;;
26864;SDS011;40618;51.166;10.322;2023-02-28T17:01:57;10.43;;;7.45;;
26864;SDS011;40618;51.166;10.322;2023-02-28T17:04:24;26.33;;;16.20;;
26864;SDS011;40618;51.166;10.322;2023-02-28T17:06:51;17.63;;;10.27;;
26864;SDS011;40618;51.166;10.322;2023-02-28T17:09:18;13.10;;;7.18;;
26864;SDS011;40618;51.166;10.322;2023-02-28T17:11:47;6.70;;;4.27;;
26864;SDS011;40618;51.166;10.322;2023-02-28T17:14:13;11.23;;;6.45;;
26864;SDS011;40618;51.166;10.322;2023-02-28T17:16:40;11.23;;;5.95;;
26864;SDS011;40618;51.166;10.322;2023-02-28T17:19:09;15.88;;;7.60;;
26864;SDS011;40618;51.166;10.322;2023-02-28T17:21:39;9.85;;;6.25;;